Livonia, New York
Current Conditions -  °F | °C
As of 9:54 AM on Monday 29 Dec 2014 (Local Time) from KDSV Reporting Station
Overcast Overcast  
Wind Chill: 30°   Ceiling: 5000
Heat Index: 30°   Visibility: 10mi
Dew Point: 24°   Wind: 0mph
Humidity: 79%   Direction: NA
Pressure: 30.23"   Gusts: NA
Location:  42.82°N, 77.67°W
Report Text: KDSV 291454Z AUTO 00000KT 10SM FEW037 OVC050 M01/M04 A3023 RMK AO2 SLP252 T10111044 53014
Loading
Personal Weather Stations






























Interactive Weather Map New forecast layout! Learn more

10-Day Weather Forecast

Advertisements
Track Severe Weather on mobile